Flight Track Log - Related Links

Times and Time Zones

All times are in EDT time to prevent confusion due to time zone crossing. See the N238BG flight status page for this flight to view local times or setup timezone preferences in your user account.


Time Position Orientation Groundspeed Altitude Reporting Facility
EDT Latitude Longitude Course Direction KTS MPH feet Rate Location/Type
Sat 05:38:39 PM 41.4997 -81.1875 28° Northeast 334 384 34,000  Level Cleveland Center
Sat 05:39:39 PM 41.9392 -79.9133 65° Northeast 334 384 14,200 -9,400 Descending Cleveland Center
Sat 05:40:39 PM 41.9022 -80.0083 242° Southwest 290 334 15,200 1,000 Climbing Cleveland Center
Sat 05:41:39 PM 41.8653 -80.0981 241° Southwest 276 318 16,200 1,000 Climbing Cleveland Center
Sat 05:42:39 PM 41.8258 -80.1931 241° Southwest 271 312 17,200 1,700 Climbing Cleveland Center
Sat 05:43:00 PM 12.3682 109.4189 28° Northeast  Level Estimated
Sat 05:43:39 PM 41.7992 -80.2711 245° Southwest 255 293 19,600  Level Cleveland Center
Sat 05:44:39 PM 41.7700 -80.3494 243° Southwest 236 272 20,400 1,050 Climbing Cleveland Center
Sat 05:45:39 PM 41.7411 -80.4244 243° Southwest 236 272 21,700 1,400 Climbing Cleveland Center
Sat 05:46:39 PM 41.7078 -80.4969 238° Southwest 236 272 23,200 1,350 Climbing Cleveland Center
Sat 05:47:39 PM 41.6786 -80.5636 240° Southwest 224 258 24,400 1,000 Climbing Cleveland Center
Sat 05:48:39 PM 41.6472 -80.6358 240° Southwest 224 258 25,200 750 Climbing Cleveland Center
Sat 05:49:39 PM 41.6139 -80.7164 241° Southwest 241 277 25,900 700 Climbing Cleveland Center
Sat 05:50:39 PM 41.5825 -80.7942 242° Southwest 246 283 26,600 650 Climbing Cleveland Center
Sat 05:51:39 PM 41.5553 -80.8633 242° Southwest 251 289 27,200 650 Climbing Cleveland Center
Sat 05:52:39 PM 41.5217 -80.9464 242° Southwest 246 283 27,900 700 Climbing Cleveland Center
Sat 05:53:39 PM 41.4900 -81.0239 241° Southwest 246 283 28,600 650 Climbing Cleveland Center
Sat 05:54:39 PM 41.4564 -81.1067 242° Southwest 246 283 29,200 750 Climbing Cleveland Center
Sat 05:55:39 PM 41.4206 -81.1839 238° Southwest 246 283 30,100 800 Climbing Cleveland Center
Sat 05:56:39 PM 41.3889 -81.2611 241° Southwest 246 283 30,800 700 Climbing Cleveland Center
Sat 05:57:39 PM 41.3550 -81.3439 241° Southwest 246 283 31,500 650 Climbing Cleveland Center
Sat 05:58:39 PM 41.3317 -81.3989 241° Southwest 232 267 32,100 650 Climbing Cleveland Center
Sat 05:59:39 PM 41.3039 -81.4731 244° Southwest 217 250 32,800 450 Climbing Cleveland Center
Sat 06:00:39 PM 41.2764 -81.5419 242° Southwest 217 250 33,000 100 Climbing Cleveland Center
Sat 06:01:39 PM 41.2467 -81.6158 242° Southwest 222 255 33,000  Level Cleveland Center
Sat 06:02:39 PM 41.2125 -81.6983 241° Southwest 232 267 33,000 -50 Level Cleveland Center
Sat 06:03:39 PM 41.1783 -81.7806 241° Southwest 243 280 32,900  Descending Cleveland Center
Sat 06:04:39 PM 41.1439 -81.8597 240° Southwest 248 285 33,000 450 Climbing Cleveland Center
Sat 06:05:39 PM 41.1075 -81.9444 240° Southwest 268 308 33,800 1,050 Climbing Cleveland Center
Sat 06:06:39 PM 41.0775 -82.0156 241° Southwest 245 282 35,100 850 Climbing Cleveland Center
Sat 06:07:39 PM 41.0433 -82.0864 237° Southwest 227 261 35,500 400 Climbing Cleveland Center
Sat 06:08:39 PM 41.0111 -82.1544 238° Southwest 221 254 35,900 600 Climbing Cleveland Center
Sat 06:09:39 PM 40.9831 -82.2225 241° Southwest 221 254 36,700 1,000 Climbing Cleveland Center
Sat 06:10:39 PM 40.9633 -82.2797 245° Southwest 194 223 37,900 650 Climbing Cleveland Center
Sat 06:11:39 PM 40.9461 -82.3258 244° Southwest 160 184 38,000 50 Climbing Cleveland Center
Sat 06:12:39 PM 40.9203 -82.3803 238° Southwest 161 185 38,000  Level Cleveland Center
Sat 06:13:39 PM 40.8922 -82.4344 236° Southwest 173 199 38,000  Level Cleveland Center
Sat 06:14:39 PM 40.8619 -82.4967 237° Southwest 190 219 38,000  Level Cleveland Center
Sat 06:15:39 PM 40.8358 -82.5564 240° Southwest 203 234 38,000  Level Cleveland Center
Sat 06:16:39 PM 40.8075 -82.6294 243° Southwest 216 249 38,000  Level Cleveland Center
Sat 06:18:08 PM 40.7617 -82.7394 241° Southwest 236 272 38,000 40 Level Indianapolis Center
Sat 06:19:10 PM 40.7278 -82.8197 241° Southwest 247 284 38,100 293 Climbing Indianapolis Center
Sat 06:20:11 PM 40.6967 -82.8944 241° Southwest 234 269 38,600 585 Climbing Indianapolis Center
Sat 06:21:13 PM 40.6681 -82.9672 243° Southwest 224 258 39,300 683 Climbing Indianapolis Center
Sat 06:22:14 PM 40.6344 -83.0411 239° Southwest 203 234 40,000 341 Climbing Indianapolis Center
Sat 06:23:16 PM 40.6025 -83.1006 235° Southwest 196 226 40,000  Level Indianapolis Center
Sat 06:24:17 PM 40.5719 -83.1628 237° Southwest 201 231 40,000 -49 Level Indianapolis Center
Sat 06:25:19 PM 40.5411 -83.2300 239° Southwest 211 243 39,900  Descending Indianapolis Center
Sat 06:26:20 PM 40.5103 -83.2997 240° Southwest 218 251 40,000 49 Climbing Indianapolis Center
Sat 06:27:22 PM 40.4803 -83.3722 241° Southwest 223 257 40,000  Level Indianapolis Center
Sat 06:28:23 PM 40.4494 -83.4464 241° Southwest 227 261 40,000  Level Indianapolis Center
Sat 06:29:25 PM 40.4150 -83.5211 239° Southwest 235 270 40,000  Level Indianapolis Center
Sat 06:30:26 PM 40.3808 -83.5975 240° Southwest 240 276 40,000  Level Indianapolis Center
Sat 06:31:27 PM 40.3453 -83.6778 240° Southwest 249 287 40,000  Level Indianapolis Center
Sat 06:32:29 PM 40.3094 -83.7558 239° Southwest 250 288 40,000  Level Indianapolis Center
Sat 06:33:30 PM 40.2722 -83.8358 239° Southwest 253 291 40,000  Level Indianapolis Center
Sat 06:34:32 PM 40.2364 -83.9144 239° Southwest 254 292 40,000  Level Indianapolis Center
Sat 06:35:33 PM 40.1933 -84.0100 239° Southwest 255 293 40,000  Level Indianapolis Center
Sat 06:36:35 PM 40.1569 -84.0911 240° Southwest 259 298 40,000  Level Indianapolis Center
Sat 06:37:36 PM 40.1194 -84.1714 239° Southwest 259 298 40,000  Level Indianapolis Center
Sat 06:38:38 PM 40.0819 -84.2525 239° Southwest 262 302 40,000  Level Indianapolis Center
Sat 06:39:39 PM 40.0450 -84.3328 239° Southwest 260 299 40,000  Level Indianapolis Center
Sat 06:40:41 PM 40.0078 -84.4136 239° Southwest 260 299 40,000 -49 Level Indianapolis Center
Sat 06:41:42 PM 39.9700 -84.4939 238° Southwest 259 298 39,900  Descending Indianapolis Center
Sat 06:42:44 PM 39.9314 -84.5758 238° Southwest 265 305 40,000 49 Climbing Indianapolis Center
Sat 06:43:45 PM 39.8867 -84.6731 239° Southwest 263 303 40,000  Level Indianapolis Center
Sat 06:44:47 PM 39.8500 -84.7536 239° Southwest 259 298 40,000  Level Indianapolis Center
Sat 06:45:49 PM 39.8111 -84.8342 238° Southwest 262 302 40,000  Level Indianapolis Center
Sat 06:46:50 PM 39.7742 -84.9136 239° Southwest 259 298 40,000  Level Indianapolis Center
Sat 06:47:52 PM 39.7333 -84.9922 236° Southwest 261 300 40,000  Level Indianapolis Center
Sat 06:48:53 PM 39.6953 -85.0742 239° Southwest 265 305 40,000  Level Indianapolis Center
Sat 06:49:55 PM 39.6572 -85.1564 239° Southwest 265 305 40,000  Level Indianapolis Center
Sat 06:50:56 PM 39.6108 -85.2558 239° Southwest 268 308 40,000  Level Indianapolis Center
Sat 06:51:58 PM 39.5717 -85.3383 238° Southwest 270 311 40,000  Level Indianapolis Center
Sat 06:53:00 PM 39.5331 -85.4208 239° Southwest 268 308 40,000  Level Indianapolis Center
Sat 06:54:02 PM 39.4928 -85.5036 238° Southwest 271 312 40,000  Level Indianapolis Center
Sat 06:55:03 PM 39.4536 -85.5861 238° Southwest 270 311 40,000  Level Indianapolis Center
Sat 06:56:05 PM 39.4142 -85.6681 238° Southwest 268 308 40,000  Level Indianapolis Center
Sat 06:57:06 PM 39.3744 -85.7514 238° Southwest 272 313 40,000  Level Indianapolis Center
Sat 06:58:08 PM 39.3331 -85.8339 237° Southwest 273 314 40,000 -48 Level Indianapolis Center
Sat 06:59:10 PM 39.2831 -85.9336 237° Southwest 275 316 39,900  Descending Indianapolis Center
Sat 07:00:11 PM 39.2417 -86.0186 238° Southwest 279 321 40,000 49 Climbing Indianapolis Center
Sat 07:01:13 PM 39.2031 -86.1017 239° Southwest 271 312 40,000  Level Indianapolis Center
Sat 07:02:14 PM 39.1633 -86.1856 239° Southwest 274 315 40,000 -49 Level Indianapolis Center
Sat 07:03:16 PM 39.1233 -86.2692 238° Southwest 275 316 39,900  Descending Indianapolis Center
Sat 07:04:17 PM 39.0819 -86.3522 237° Southwest 275 316 40,000  Climbing Indianapolis Center
Sat 07:05:19 PM 39.0411 -86.4350 238° Southwest 274 315 39,900 -48 Descending Indianapolis Center
Sat 07:06:21 PM 39.0006 -86.5167 237° Southwest 272 313 39,900 49 Level Indianapolis Center
Sat 07:07:22 PM 38.9536 -86.6111 237° Southwest 272 313 40,000  Climbing Indianapolis Center
Sat 07:08:24 PM 38.9133 -86.6925 238° Southwest 270 311 39,900 -49 Descending Indianapolis Center
Sat 07:09:25 PM 38.8722 -86.7733 237° Southwest 271 312 39,900 49 Level Indianapolis Center
Sat 07:10:27 PM 38.8311 -86.8550 237° Southwest 271 312 40,000 49 Climbing Indianapolis Center
Sat 07:11:28 PM 38.7894 -86.9364 237° Southwest 272 313 40,000  Level Indianapolis Center
Sat 07:12:30 PM 38.7486 -87.0183 237° Southwest 272 313 40,000  Level Indianapolis Center
Sat 07:13:31 PM 38.7072 -87.1000 237° Southwest 273 314 40,000  Level Indianapolis Center
Sat 07:14:32 PM 38.6589 -87.1994 238° Southwest 275 316 40,000  Level Indianapolis Center
Sat 07:15:34 PM 38.6167 -87.2808 236° Southwest 275 316 40,000  Level Indianapolis Center
Sat 07:16:35 PM 38.5753 -87.3639 238° Southwest 277 319 40,000  Level Indianapolis Center
Sat 07:17:37 PM 38.5331 -87.4472 237° Southwest 280 322 40,000  Level Indianapolis Center
Sat 07:18:38 PM 38.4922 -87.5303 238° Southwest 277 319 40,000  Level Indianapolis Center
Sat 07:19:40 PM 38.4494 -87.6119 236° Southwest 278 320 40,000  Level Indianapolis Center
Sat 07:20:41 PM 38.4078 -87.6947 237° Southwest 277 319 40,000  Level Indianapolis Center
Sat 07:21:42 PM 38.3644 -87.7758 236° Southwest 278 320 40,000  Level Indianapolis Center
Sat 07:22:44 PM 38.3125 -87.8753 236° Southwest 281 323 40,000  Level Indianapolis Center
Sat 07:23:45 PM 38.2703 -87.9586 237° Southwest 280 322 40,000 -49 Level Indianapolis Center
Sat 07:24:47 PM 38.2269 -88.0417 236° Southwest 281 323 39,900 -49 Descending Indianapolis Center
Sat 07:25:48 PM 38.1833 -88.1242 236° Southwest 282 325 39,900  Level Indianapolis Center
Sat 07:26:49 PM 38.1400 -88.2078 237° Southwest 282 325 39,900  Level Indianapolis Center
Sat 07:27:51 PM 38.0956 -88.2928 236° Southwest 286 329 39,900 49 Level Indianapolis Center
Sat 07:28:52 PM 38.0519 -88.3772 237° Southwest 285 328 40,000 49 Climbing Indianapolis Center
Sat 07:29:53 PM 38.0075 -88.4617 236° Southwest 287 330 40,000  Level Indianapolis Center
Sat 07:30:55 PM 37.9622 -88.5469 236° Southwest 290 334 40,000  Level Indianapolis Center
Sat 07:31:56 PM 37.9175 -88.6319 236° Southwest 290 334 40,000  Level Indianapolis Center
Sat 07:32:57 PM 37.8706 -88.7178 235° Southwest 294 338 40,000  Level Indianapolis Center
Sat 07:33:59 PM 37.8147 -88.8200 235° Southwest 294 338 40,000  Level Indianapolis Center
Sat 07:35:00 PM 37.7692 -88.9061 236° Southwest 294 338 40,000  Level Indianapolis Center
Sat 07:36:01 PM 37.7239 -88.9933 237° Southwest 295 339 40,000  Level Indianapolis Center
Sat 07:37:03 PM 37.6789 -89.0806 237° Southwest 295 339 40,000  Level Indianapolis Center
Sat 07:38:04 PM 37.6336 -89.1656 236° Southwest 292 336 40,000  Level Indianapolis Center
Sat 07:39:20 PM 37.5792 -89.2736 238° Southwest 305 351 40,000  Level Memphis Center
Sat 07:40:20 PM 37.5319 -89.3606 236° Southwest 305 351 40,000  Level Memphis Center
Sat 07:41:20 PM 37.4847 -89.4422 234° Southwest 305 351 40,000  Level Memphis Center
Sat 07:42:20 PM 37.4394 -89.5314 237° Southwest 310 357 40,000  Level Memphis Center
Sat 07:43:20 PM 37.3881 -89.6286 236° Southwest 310 357 40,000  Level Memphis Center
Sat 07:44:20 PM 37.3428 -89.7125 236° Southwest 310 357 40,000  Level Memphis Center
Sat 07:45:20 PM 37.2953 -89.7989 235° Southwest 310 357 40,000  Level Memphis Center
Sat 07:46:20 PM 37.2478 -89.8853 235° Southwest 310 357 40,000  Level Memphis Center
Sat 07:47:20 PM 37.2000 -89.9714 235° Southwest 310 357 40,000  Level Memphis Center
Sat 07:48:20 PM 37.1525 -90.0575 235° Southwest 310 357 40,000  Level Memphis Center
Sat 07:49:20 PM 37.1047 -90.1411 234° Southwest 310 357 40,000 -50 Level Memphis Center
Sat 07:50:20 PM 37.0589 -90.2294 237° Southwest 310 357 39,900  Descending Memphis Center
Sat 07:50:51 PM 37.0356 -90.2619 228° Southwest 301 346 40,000  Climbing Kansas City Center
Sat 07:51:52 PM 36.9878 -90.3469 235° Southwest 300 345 39,900  Descending Kansas City Center
Sat 07:52:54 PM 36.9392 -90.4322 235° Southwest 300 345 40,000 41 Climbing Kansas City Center
Sat 07:54:20 PM 36.8631 -90.5722 236° Southwest 310 357 40,000  Level Memphis Center
Sat 07:55:20 PM 36.8150 -90.6575 235° Southwest 310 357 40,000  Level Memphis Center
Sat 07:56:20 PM 36.7667 -90.7453 236° Southwest 310 357 40,000  Level Memphis Center
Sat 07:57:20 PM 36.7164 -90.8306 234° Southwest 310 357 40,000  Level Memphis Center
Sat 07:58:20 PM 36.6661 -90.9183 234° Southwest 310 357 40,000  Level Memphis Center
Sat 07:59:20 PM 36.6178 -91.0058 235° Southwest 310 357 40,000 -50 Level Memphis Center
Sat 08:00:20 PM 36.5692 -91.0933 235° Southwest 310 357 39,900 -50 Descending Memphis Center
Sat 08:01:20 PM 36.5228 -91.1703 233° Southwest 310 357 39,900 50 Level Memphis Center
Sat 08:02:20 PM 36.4703 -91.2653 236° Southwest 315 362 40,000 50 Climbing Memphis Center
Sat 08:03:20 PM 36.4194 -91.3525 234° Southwest 310 357 40,000  Level Memphis Center
Sat 08:04:20 PM 36.3686 -91.4394 234° Southwest 310 357 40,000  Level Memphis Center
Sat 08:05:20 PM 36.3200 -91.5289 236° Southwest 315 362 40,000 -50 Level Memphis Center
Sat 08:06:20 PM 36.2692 -91.6131 233° Southwest 315 362 39,900 -50 Descending Memphis Center
Sat 08:07:20 PM 36.2203 -91.7025 236° Southwest 310 357 39,900  Level Memphis Center
Sat 08:08:20 PM 36.1714 -91.7864 234° Southwest 310 357 39,900  Level Memphis Center
Sat 08:09:20 PM 36.1161 -91.8703 231° Southwest 310 357 39,900  Level Memphis Center
Sat 08:10:20 PM 36.0650 -91.9567 234° Southwest 310 357 39,900 50 Level Memphis Center
Sat 08:11:20 PM 36.0181 -92.0431 236° Southwest 310 357 40,000 50 Climbing Memphis Center
Sat 08:12:20 PM 35.9731 -92.1267 236° Southwest 305 351 40,000  Level Memphis Center
Sat 08:13:20 PM 35.9239 -92.2103 234° Southwest 305 351 40,000 -50 Level Memphis Center
Sat 08:14:20 PM 35.8725 -92.2961 234° Southwest 310 357 39,900  Descending Memphis Center
Sat 08:15:20 PM 35.8211 -92.3819 234° Southwest 310 357 40,000 50 Climbing Memphis Center
Sat 08:16:20 PM 35.7697 -92.4653 233° Southwest 310 357 40,000  Level Memphis Center
Sat 08:17:20 PM 35.7203 -92.5508 235° Southwest 310 357 40,000  Level Memphis Center
Sat 08:18:20 PM 35.6686 -92.6364 233° Southwest 310 357 40,000  Level Memphis Center
Sat 08:19:20 PM 35.6192 -92.7219 235° Southwest 310 357 40,000 -50 Level Memphis Center
Sat 08:20:20 PM 35.5736 -92.8075 237° Southwest 322 371 39,900  Descending Memphis Center
Sat 08:21:20 PM 35.5219 -92.8953 234° Southwest 327 376 40,000  Climbing Memphis Center
Sat 08:22:20 PM 35.4700 -92.9803 233° Southwest 322 371 39,900  Descending Memphis Center
Sat 08:23:20 PM 35.4161 -93.0600 230° Southwest 322 371 40,000 50 Climbing Memphis Center
Sat 08:24:20 PM 35.3664 -93.1503 236° Southwest 316 364 40,000  Level Memphis Center
Sat 08:25:20 PM 35.3144 -93.2325 232° Southwest 316 364 40,000  Level Memphis Center
Sat 08:26:20 PM 35.2622 -93.3169 233° Southwest 316 364 40,000  Level Memphis Center
Sat 08:27:20 PM 35.2058 -93.4067 232° Southwest 316 364 40,000  Level Memphis Center
Sat 08:28:20 PM 35.1558 -93.4886 233° Southwest 316 364 40,000  Level Memphis Center
Sat 08:29:20 PM 35.1014 -93.5778 233° Southwest 316 364 40,000 -50 Level Memphis Center
Sat 08:30:20 PM 35.0472 -93.6619 232° Southwest 316 364 39,900  Descending Memphis Center
Sat 08:31:20 PM 34.9967 -93.7489 235° Southwest 316 364 40,000 50 Climbing Memphis Center
Sat 08:32:20 PM 34.9422 -93.8353 232° Southwest 316 364 40,000  Level Memphis Center
Sat 08:33:20 PM 34.8917 -93.9269 236° Southwest 322 371 40,000  Level Memphis Center
Sat 08:35:46 PM 34.7606 -94.1356 233° Southwest 317 365 40,000  Level Fort Worth Center
Sat 08:36:46 PM 34.7067 -94.2258 234° Southwest 326 375 40,000  Level Fort Worth Center
Sat 08:37:46 PM 34.6525 -94.3136 233° Southwest 333 383 40,000  Level Fort Worth Center
Sat 08:38:46 PM 34.5961 -94.3989 231° Southwest 333 383 40,000  Level Fort Worth Center
Sat 08:39:46 PM 34.5419 -94.4892 234° Southwest 328 377 40,000  Level Fort Worth Center
Sat 08:40:46 PM 34.4856 -94.5767 232° Southwest 328 377 40,000 -600 Level Fort Worth Center
Sat 08:41:46 PM 34.4314 -94.6667 234° Southwest 333 383 38,800 -1,150 Descending Fort Worth Center
Sat 08:42:46 PM 34.3808 -94.7486 233° Southwest 327 376 37,700 -1,100 Descending Fort Worth Center
Sat 08:43:46 PM 34.3261 -94.8283 230° Southwest 320 368 36,600 -1,050 Descending Fort Worth Center
Sat 08:44:46 PM 34.2717 -94.9128 232° Southwest 313 360 35,600 -1,150 Descending Fort Worth Center
Sat 08:45:46 PM 34.2211 -94.9947 233° Southwest 313 360 34,300 -1,300 Descending Fort Worth Center
Sat 08:46:46 PM 34.1683 -95.0742 231° Southwest 313 360 33,000 -1,250 Descending Fort Worth Center
Sat 08:47:46 PM 34.1175 -95.1531 232° Southwest 307 353 31,800 -1,100 Descending Fort Worth Center
Sat 08:48:46 PM 34.0708 -95.2297 234° Southwest 301 346 30,800 -1,250 Descending Fort Worth Center
Sat 08:49:46 PM 34.0222 -95.3036 232° Southwest 301 346 29,300 -1,750 Descending Fort Worth Center
Sat 08:50:46 PM 33.9753 -95.3722 230° Southwest 285 328 27,300 -2,250 Descending Fort Worth Center
Sat 08:51:46 PM 33.9264 -95.4461 231° Southwest 285 328 24,800 -2,500 Descending Fort Worth Center
Sat 08:52:46 PM 33.8775 -95.5197 231° Southwest 280 322 22,300 -2,500 Descending Fort Worth Center
Sat 08:53:46 PM 33.8306 -95.5981 234° Southwest 274 315 19,800 -2,050 Descending Fort Worth Center
Sat 08:54:46 PM 33.7836 -95.6742 233° Southwest 274 315 18,200 -1,300 Descending Fort Worth Center
Sat 08:55:46 PM 33.7408 -95.7425 233° Southwest 274 315 17,200 -1,050 Descending Fort Worth Center
Sat 08:56:46 PM 33.6917 -95.8158 231° Southwest 274 315 16,100 -1,300 Descending Fort Worth Center
Sat 08:57:46 PM 33.6361 -95.8917 229° Southwest 286 329 14,600 -1,950 Descending Fort Worth Center
Sat 08:58:46 PM 33.5850 -95.9747 234° Southwest 308 354 12,200 -2,600 Descending Fort Worth Center
Sat 08:59:46 PM 33.5400 -96.0503 234° Southwest 299 344 9,400 -2,850 Descending Fort Worth Center
Sat 09:00:46 PM 33.4928 -96.1283 234° Southwest 287 330 6,500 -2,700 Descending Fort Worth Center
Sat 09:01:46 PM 33.4453 -96.1911 228° Southwest 275 316 4,000 -1,250 Descending Fort Worth Center
Sat 09:02:46 PM 33.4000 -96.2589 231° Southwest 265 305 4,000 -200 Level Fort Worth Center
Sat 09:03:46 PM 33.3608 -96.3192 232° Southwest 253 291 3,600 -500 Descending Fort Worth Center
Sat 09:04:46 PM 33.3197 -96.3817 232° Southwest 247 284 3,000 -316 Descending Fort Worth Center
Sat 09:05:40 PM 33.2833 -96.4333 230° Southwest 251 289 3,000 -95 Level Dallas / Fort Worth TRACON
Sat 09:06:52 PM 33.2500 -96.5333 248° West 244 281 2,800 -476 Descending Dallas / Fort Worth TRACON
Sat 09:07:46 PM 33.2167 -96.5667 220° Southwest 151 174 2,000 -889 Descending Dallas / Fort Worth TRACON

Login

Don't have an account? Register now (free) for customized features, flight alerts, and more!